Time;durP1;ratioP1;P1;durP2;ratioP2;P2;SDS_P1;SDS_P2;PMS_P1;PMS_P2;Temp;Humidity;BMP_temperature;BMP_pressure;BME280_temperature;BME280_humidity;BME280_pressure;Samples;Min_cycle;Max_cycle;Signal;HPM_P1;HPM_P2
2022/03/23 00:00:39;;;;;;;57.25;42.40;;;5.90;84.70;;;;;;5012263;28;20044;-43
2022/03/23 00:03:06;;;;;;;63.10;45.55;;;5.80;84.60;;;;;;5011733;28;20069;-42
2022/03/23 00:05:36;;;;;;;59.67;44.65;;;5.70;84.50;;;;;;5011258;28;20050;-44
2022/03/23 00:08:02;;;;;;;56.28;45.10;;;5.70;84.50;;;;;;5011708;28;20412;-44
2022/03/23 00:10:28;;;;;;;59.85;43.65;;;5.70;84.60;;;;;;5012075;28;20399;-47
2022/03/23 00:12:57;;;;;;;58.42;42.58;;;5.60;84.70;;;;;;5012391;28;20076;-44
2022/03/23 00:15:23;;;;;;;63.95;44.50;;;5.60;84.70;;;;;;5010751;28;20046;-43
2022/03/23 00:17:51;;;;;;;59.25;43.63;;;5.60;84.70;;;;;;5010586;28;20100;-44
2022/03/23 00:20:18;;;;;;;58.05;42.28;;;5.50;84.70;;;;;;5010860;28;20022;-43
2022/03/23 00:22:43;;;;;;;57.90;43.00;;;5.50;84.70;;;;;;5011740;28;20403;-43
2022/03/23 00:25:10;;;;;;;57.75;42.35;;;5.50;84.80;;;;;;4994287;28;20070;-42
2022/03/23 00:27:36;;;;;;;58.30;44.03;;;5.40;84.80;;;;;;5010242;28;20037;-43
2022/03/23 00:30:06;;;;;;;56.00;40.42;;;5.40;84.80;;;;;;5011063;28;20040;-44
2022/03/23 00:32:34;;;;;;;58.83;42.00;;;5.40;84.80;;;;;;5011084;28;20594;-45
2022/03/23 00:35:00;;;;;;;54.88;39.95;;;5.40;84.80;;;;;;4993799;28;20065;-43
2022/03/23 00:37:29;;;;;;;55.67;41.90;;;5.30;84.80;;;;;;5009653;28;20436;-43
2022/03/23 00:39:57;;;;;;;58.33;39.90;;;5.30;84.90;;;;;;5010172;28;20045;-43
2022/03/23 00:42:22;;;;;;;55.78;39.58;;;5.30;85.00;;;;;;5011549;28;20117;-42
2022/03/23 00:44:52;;;;;;;58.08;40.63;;;5.30;85.00;;;;;;5011069;28;20104;-42
2022/03/23 00:47:20;;;;;;;55.83;39.75;;;5.30;84.90;;;;;;5010674;28;20030;-43
2022/03/23 00:49:47;;;;;;;51.10;39.38;;;5.20;84.80;;;;;;5011150;28;20376;-42
2022/03/23 00:52:13;;;;;;;47.17;35.97;;;5.20;84.80;;;;;;5011340;28;20026;-43
2022/03/23 00:54:41;;;;;;;47.15;37.75;;;5.20;84.70;;;;;;5010147;28;20121;-44
2022/03/23 00:57:07;;;;;;;53.08;38.10;;;5.10;84.80;;;;;;5010605;28;20115;-43
2022/03/23 00:59:35;;;;;;;51.38;38.00;;;5.10;84.70;;;;;;5010960;28;20026;-45
2022/03/23 01:02:05;;;;;;;59.45;42.22;;;5.10;84.50;;;;;;5010458;28;20339;-44
2022/03/23 01:04:32;;;;;;;57.67;38.83;;;5.00;84.80;;;;;;5010321;28;20030;-42
2022/03/23 01:06:59;;;;;;;53.08;38.55;;;5.00;84.80;;;;;;4993458;28;20497;-42
2022/03/23 01:09:25;;;;;;;53.65;38.38;;;5.00;84.80;;;;;;5010628;28;20064;-42
2022/03/23 01:11:56;;;;;;;54.00;37.22;;;5.00;84.80;;;;;;5010124;28;20439;-43
2022/03/23 01:14:26;;;;;;;54.88;38.60;;;4.90;84.90;;;;;;5009253;28;20048;-42
2022/03/23 01:16:54;;;;;;;52.10;36.90;;;5.00;85.00;;;;;;4973971;28;20042;-42
2022/03/23 01:19:25;;;;;;;51.80;37.30;;;5.00;85.10;;;;;;5001799;28;20038;-43
2022/03/23 01:21:53;;;;;;;51.45;37.17;;;5.00;85.30;;;;;;5009813;28;20092;-43
2022/03/23 01:24:21;;;;;;;50.30;38.22;;;5.00;85.40;;;;;;5009791;28;20049;-44
2022/03/23 01:26:48;;;;;;;51.78;39.70;;;5.00;85.50;;;;;;5010321;28;20112;-44
2022/03/23 01:29:15;;;;;;;50.92;38.78;;;5.00;85.30;;;;;;5010558;28;20068;-43
2022/03/23 01:31:40;;;;;;;48.85;36.10;;;5.00;85.10;;;;;;5010630;28;20033;-45
2022/03/23 01:34:08;;;;;;;51.92;38.22;;;4.90;85.00;;;;;;4993385;28;20462;-44
2022/03/23 01:36:36;;;;;;;51.03;37.63;;;4.90;84.90;;;;;;5010672;28;20081;-43
2022/03/23 01:39:04;;;;;;;51.40;36.78;;;4.90;85.00;;;;;;5010630;28;20432;-43
2022/03/23 01:41:39;;;;;;;49.15;36.03;;;4.80;84.80;;;;;;5010648;28;20339;-43
2022/03/23 01:44:34;;;;;;;51.38;36.55;;;4.80;85.00;;;;;;5010221;28;20061;-43
2022/03/23 01:47:16;;;;;;;51.10;34.72;;;4.80;85.00;;;;;;5010609;28;20037;-42
2022/03/23 01:50:04;;;;;;;51.42;34.55;;;4.80;85.00;;;;;;5009551;28;20046;-42
2022/03/23 01:52:31;;;;;;;50.97;35.40;;;4.70;85.00;;;;;;5010014;28;20044;-42
2022/03/23 01:55:09;;;;;;;43.83;33.55;;;4.70;85.10;;;;;;5009982;28;20042;-42
2022/03/23 01:57:38;;;;;;;49.65;34.60;;;4.70;84.90;;;;;;4993363;28;20026;-43
2022/03/23 02:00:07;;;;;;;48.72;35.50;;;4.70;85.10;;;;;;4993380;28;20451;-44
2022/03/23 02:02:34;;;;;;;53.55;34.97;;;4.70;84.90;;;;;;5010549;28;20063;-45
2022/03/23 02:05:03;;;;;;;50.60;36.25;;;4.60;84.90;;;;;;5010421;28;20022;-42
2022/03/23 02:07:30;;;;;;;53.20;37.45;;;4.60;85.10;;;;;;4992956;28;20058;-42
2022/03/23 02:09:56;;;;;;;54.50;34.92;;;4.60;85.20;;;;;;5009779;28;20513;-42
2022/03/23 02:12:22;;;;;;;43.72;33.53;;;4.50;85.20;;;;;;5009072;28;20034;-43
2022/03/23 02:14:51;;;;;;;45.63;35.75;;;4.50;85.20;;;;;;5005211;28;20498;-42
2022/03/23 02:17:19;;;;;;;47.13;35.97;;;4.50;85.10;;;;;;5010091;28;20180;-42
2022/03/23 02:19:47;;;;;;;49.05;35.50;;;4.50;85.10;;;;;;5010526;28;20139;-42
2022/03/23 02:22:16;;;;;;;48.85;34.55;;;4.50;85.10;;;;;;5009915;28;20339;-43
2022/03/23 02:24:41;;;;;;;46.67;35.03;;;4.50;85.30;;;;;;5010189;28;20075;-42
2022/03/23 02:27:09;;;;;;;45.17;34.55;;;4.40;85.30;;;;;;5008856;28;20128;-42
2022/03/23 02:29:37;;;;;;;50.28;34.92;;;4.40;85.30;;;;;;5008820;28;20037;-43
2022/03/23 02:32:04;;;;;;;44.20;32.85;;;4.40;85.40;;;;;;5009108;28;20026;-42
2022/03/23 02:34:33;;;;;;;54.40;35.42;;;4.40;85.40;;;;;;5010004;28;20022;-43
2022/03/23 02:37:04;;;;;;;44.08;33.80;;;4.40;85.40;;;;;;5009690;28;20029;-45
2022/03/23 02:39:32;;;;;;;45.75;34.15;;;4.40;85.40;;;;;;5008730;28;20030;-45
2022/03/23 02:41:58;;;;;;;44.47;33.28;;;4.40;85.30;;;;;;5009747;28;20144;-43
2022/03/23 02:44:29;;;;;;;45.45;32.90;;;4.40;85.50;;;;;;5008137;28;20040;-43
2022/03/23 02:46:56;;;;;;;45.67;33.13;;;4.40;85.40;;;;;;5008214;28;20030;-43
2022/03/23 02:49:24;;;;;;;42.95;31.40;;;4.40;85.50;;;;;;5008572;28;20045;-43
2022/03/23 02:51:53;;;;;;;47.03;35.58;;;4.40;85.40;;;;;;5010317;28;20161;-43
2022/03/23 03:03:19;;;;;;;43.17;32.53;;;4.30;85.50;;;;;;5010357;28;20044;-42
2022/03/23 03:05:45;;;;;;;44.92;31.13;;;4.30;85.40;;;;;;5013124;28;20034;-42
2022/03/23 03:10:56;;;;;;;43.53;31.40;;;4.20;85.70;;;;;;5013453;28;20113;-44
2022/03/23 03:13:24;;;;;;;43.05;32.17;;;4.20;85.70;;;;;;5012336;28;20121;-42
2022/03/23 03:15:50;;;;;;;42.58;31.50;;;4.20;85.80;;;;;;5012745;28;20057;-43
2022/03/23 03:18:20;;;;;;;42.55;31.55;;;4.20;85.90;;;;;;5012013;28;20029;-43
2022/03/23 03:20:47;;;;;;;45.08;31.98;;;4.20;85.70;;;;;;5013115;28;20110;-43
2022/03/23 03:23:12;;;;;;;43.50;31.65;;;4.20;85.70;;;;;;5013192;28;20034;-42
2022/03/23 03:25:40;;;;;;;39.70;29.30;;;4.10;85.50;;;;;;5013068;28;20032;-42
2022/03/23 03:28:06;;;;;;;49.38;32.50;;;4.10;85.70;;;;;;5013087;28;20489;-41
2022/03/23 03:30:33;;;;;;;44.78;30.67;;;4.10;85.70;;;;;;5013267;28;20033;-42
2022/03/23 03:33:02;;;;;;;43.47;30.98;;;4.10;85.70;;;;;;5011874;28;20029;-42
2022/03/23 03:35:34;;;;;;;43.97;32.72;;;4.00;85.80;;;;;;5011968;28;20040;-43
2022/03/23 03:38:01;;;;;;;42.35;30.77;;;4.00;85.90;;;;;;5012924;28;20026;-42
2022/03/23 03:40:28;;;;;;;45.28;31.95;;;4.00;85.90;;;;;;5011984;28;20390;-43
2022/03/23 03:42:53;;;;;;;43.03;30.45;;;4.00;85.80;;;;;;5012901;28;20030;-43
2022/03/23 03:45:23;;;;;;;38.65;29.58;;;4.00;85.70;;;;;;5011836;28;20030;-42
2022/03/23 03:47:51;;;;;;;41.55;30.17;;;4.00;85.70;;;;;;5012821;28;20045;-42
2022/03/23 03:50:16;;;;;;;43.05;30.05;;;4.00;85.70;;;;;;5012406;28;20065;-43
2022/03/23 03:52:43;;;;;;;42.97;31.60;;;3.90;85.80;;;;;;5011576;28;20037;-42
2022/03/23 03:55:11;;;;;;;42.80;30.33;;;3.90;85.60;;;;;;5011697;28;20080;-42
2022/03/23 03:57:38;;;;;;;37.67;29.20;;;3.90;85.60;;;;;;5009923;28;20038;-43
2022/03/23 04:00:10;;;;;;;39.40;29.20;;;3.90;85.70;;;;;;5010901;28;20466;-42
2022/03/23 04:02:38;;;;;;;42.05;30.20;;;3.90;85.50;;;;;;5012007;28;20096;-43
2022/03/23 04:05:06;;;;;;;38.40;28.98;;;3.90;85.80;;;;;;5012602;28;20084;-43
2022/03/23 04:07:35;;;;;;;42.70;30.23;;;3.90;85.70;;;;;;5010810;28;20387;-45
2022/03/23 04:10:04;;;;;;;45.35;31.85;;;3.90;85.70;;;;;;5010396;28;20034;-43
2022/03/23 04:12:33;;;;;;;38.30;29.70;;;3.90;85.80;;;;;;4993645;28;20370;-42
2022/03/23 04:15:00;;;;;;;43.92;31.45;;;3.90;85.70;;;;;;5011772;28;20068;-45
2022/03/23 04:17:29;;;;;;;35.88;28.08;;;3.90;85.60;;;;;;5010493;28;20379;-42
2022/03/23 04:19:54;;;;;;;40.17;29.23;;;3.90;85.50;;;;;;5011783;28;20022;-42
2022/03/23 04:22:21;;;;;;;35.40;27.48;;;3.90;85.50;;;;;;5011887;28;20440;-43
2022/03/23 04:24:48;;;;;;;43.33;31.38;;;3.90;85.40;;;;;;5011985;28;20328;-42
2022/03/23 04:27:15;;;;;;;40.33;28.92;;;3.90;85.50;;;;;;5011684;28;20026;-41
2022/03/23 04:29:43;;;;;;;44.72;30.38;;;3.80;85.60;;;;;;5011813;28;20072;-43
2022/03/23 04:32:09;;;;;;;38.78;28.92;;;3.80;85.50;;;;;;5011741;28;20030;-42
2022/03/23 04:34:37;;;;;;;36.90;28.77;;;3.80;85.50;;;;;;5012060;28;20040;-42
2022/03/23 04:37:03;;;;;;;42.03;28.02;;;3.80;85.50;;;;;;5012000;28;20069;-41
2022/03/23 04:39:31;;;;;;;42.15;29.50;;;3.80;85.40;;;;;;5011161;28;20532;-43
2022/03/23 04:41:59;;;;;;;36.60;26.90;;;3.70;85.30;;;;;;5010584;28;20037;-43
2022/03/23 04:44:26;;;;;;;38.65;28.63;;;3.70;85.20;;;;;;5009949;28;20061;-42
2022/03/23 04:46:53;;;;;;;38.85;28.38;;;3.70;85.40;;;;;;5007573;28;20030;-42
2022/03/23 04:49:18;;;;;;;36.08;26.63;;;3.70;85.40;;;;;;5009847;28;20046;-42
2022/03/23 04:51:46;;;;;;;35.53;26.60;;;3.70;85.40;;;;;;5011069;28;20046;-42
2022/03/23 04:54:14;;;;;;;34.33;26.80;;;3.70;85.30;;;;;;5011569;28;20030;-41
2022/03/23 04:56:40;;;;;;;35.53;25.58;;;3.70;85.40;;;;;;5010848;28;20143;-42
2022/03/23 04:59:07;;;;;;;34.28;26.02;;;3.70;85.40;;;;;;5011217;28;20032;-41
2022/03/23 05:01:34;;;;;;;36.33;27.35;;;3.70;85.30;;;;;;5010079;28;20051;-42
2022/03/23 05:04:01;;;;;;;35.53;26.73;;;3.70;85.40;;;;;;5011113;28;20034;-43
2022/03/23 05:06:27;;;;;;;34.25;26.38;;;3.70;85.30;;;;;;5011122;28;20100;-43
2022/03/23 05:08:54;;;;;;;33.78;24.40;;;3.70;85.20;;;;;;5011505;28;20033;-42
2022/03/23 05:11:23;;;;;;;34.92;25.98;;;3.70;85.30;;;;;;5009883;28;20149;-42
2022/03/23 05:13:51;;;;;;;30.40;23.52;;;3.70;85.20;;;;;;5010511;28;20026;-41
2022/03/23 05:16:19;;;;;;;33.47;24.15;;;3.70;85.20;;;;;;5010288;28;20251;-46
2022/03/23 05:18:46;;;;;;;34.17;25.63;;;3.70;85.30;;;;;;5009960;28;20034;-43
2022/03/23 05:21:15;;;;;;;32.97;24.83;;;3.70;85.10;;;;;;4993449;28;20039;-43
2022/03/23 05:23:42;;;;;;;31.80;24.83;;;3.70;85.00;;;;;;5010653;28;20037;-42
2022/03/23 05:26:11;;;;;;;32.72;24.52;;;3.70;85.00;;;;;;5010499;28;20435;-43
2022/03/23 05:28:39;;;;;;;35.03;24.63;;;3.70;84.90;;;;;;5010236;28;20053;-43
2022/03/23 05:31:05;;;;;;;34.13;24.83;;;3.60;84.80;;;;;;5010910;28;20041;-42
2022/03/23 05:33:33;;;;;;;27.88;23.83;;;3.60;84.80;;;;;;5010669;28;20029;-45
2022/03/23 05:36:00;;;;;;;34.40;25.65;;;3.70;84.80;;;;;;5009579;28;20382;-42
2022/03/23 05:38:27;;;;;;;33.88;25.98;;;3.70;84.80;;;;;;5010327;28;20398;-42
2022/03/23 05:40:54;;;;;;;36.05;24.48;;;3.70;84.80;;;;;;5010818;28;20145;-41
2022/03/23 05:43:21;;;;;;;32.35;25.13;;;3.80;84.90;;;;;;5010255;28;20059;-41
2022/03/23 05:45:48;;;;;;;34.03;24.77;;;3.80;84.80;;;;;;5010707;28;20084;-42
2022/03/23 05:48:14;;;;;;;33.35;24.73;;;3.80;84.70;;;;;;5010216;28;20040;-44
2022/03/23 05:50:42;;;;;;;34.22;24.77;;;3.80;84.70;;;;;;5010104;28;20035;-42
2022/03/23 05:53:10;;;;;;;30.55;23.40;;;3.80;84.70;;;;;;5009200;28;20046;-42
2022/03/23 05:55:37;;;;;;;33.03;24.13;;;3.90;84.70;;;;;;5008761;28;20076;-41
2022/03/23 05:58:05;;;;;;;36.72;24.48;;;3.90;84.70;;;;;;5009929;28;20053;-41
2022/03/23 06:00:31;;;;;;;31.95;23.77;;;3.90;84.60;;;;;;5008038;28;20050;-42
2022/03/23 06:03:01;;;;;;;34.67;24.10;;;3.90;84.70;;;;;;5008468;28;20413;-42
2022/03/23 06:05:28;;;;;;;40.72;25.75;;;4.00;84.80;;;;;;5008832;28;20032;-44
2022/03/23 06:07:58;;;;;;;35.22;25.10;;;4.10;84.60;;;;;;5006830;28;20039;-43
2022/03/23 06:10:26;;;;;;;30.55;24.02;;;4.10;84.80;;;;;;5009254;28;20033;-41
2022/03/23 06:12:53;;;;;;;32.00;23.50;;;4.20;84.90;;;;;;5015352;28;20100;-41
2022/03/23 06:15:20;;;;;;;38.50;24.17;;;4.30;84.90;;;;;;5009658;28;20745;-43
2022/03/23 06:17:47;;;;;;;29.58;23.88;;;4.40;84.90;;;;;;5010450;28;20053;-41
2022/03/23 06:20:16;;;;;;;34.30;24.90;;;4.40;84.90;;;;;;5007677;28;20028;-43
2022/03/23 06:22:43;;;;;;;31.77;22.25;;;4.50;85.00;;;;;;5008836;28;20037;-42
2022/03/23 06:25:10;;;;;;;30.88;24.98;;;4.50;84.60;;;;;;5009865;28;20451;-44
2022/03/23 06:27:41;;;;;;;29.73;23.52;;;4.60;84.70;;;;;;5005414;28;20105;-41
2022/03/23 06:30:07;;;;;;;31.38;24.90;;;4.70;84.80;;;;;;5004560;28;20030;-42
2022/03/23 06:32:34;;;;;;;33.88;24.60;;;4.80;84.70;;;;;;5008235;28;20036;-42
2022/03/23 06:35:02;;;;;;;29.25;23.15;;;4.90;84.70;;;;;;5008356;28;20152;-42
2022/03/23 06:37:30;;;;;;;31.42;24.65;;;4.90;84.60;;;;;;5011472;28;20072;-42
2022/03/23 06:40:01;;;;;;;31.63;24.27;;;5.00;84.50;;;;;;5012942;28;20052;-42
2022/03/23 06:42:29;;;;;;;27.85;22.25;;;5.20;84.40;;;;;;5008100;28;20034;-42
2022/03/23 06:44:57;;;;;;;32.28;24.80;;;5.30;84.30;;;;;;5013041;28;20097;-42
2022/03/23 06:47:23;;;;;;;30.95;25.08;;;5.30;84.00;;;;;;5013068;28;20407;-42
2022/03/23 06:49:50;;;;;;;38.78;24.58;;;5.40;84.00;;;;;;5012948;28;20026;-41
2022/03/23 06:52:17;;;;;;;30.10;23.95;;;5.50;83.90;;;;;;5012035;28;20025;-41
2022/03/23 06:54:48;;;;;;;30.50;23.58;;;5.70;83.70;;;;;;5012568;28;20084;-41
2022/03/23 06:57:16;;;;;;;30.33;24.40;;;5.90;83.50;;;;;;5012459;28;20030;-42
2022/03/23 06:59:43;;;;;;;30.20;23.27;;;6.00;83.20;;;;;;4995199;28;20471;-41
2022/03/23 07:02:13;;;;;;;30.75;23.95;;;6.20;82.60;;;;;;4989333;28;20037;-42
2022/03/23 07:04:42;;;;;;;33.05;23.73;;;6.30;82.20;;;;;;4991894;28;20029;-43
2022/03/23 07:07:08;;;;;;;31.80;24.05;;;6.40;81.60;;;;;;4994603;28;20160;-42
2022/03/23 07:09:38;;;;;;;27.42;22.38;;;6.60;81.30;;;;;;4991935;28;20523;-43
2022/03/23 07:12:14;;;;;;;27.60;23.15;;;6.80;80.40;;;;;;4985919;28;20045;-42
2022/03/23 07:14:42;;;;;;;27.05;23.92;;;6.90;80.30;;;;;;4986282;28;20450;-43
2022/03/23 07:17:07;;;;;;;26.90;22.08;;;7.20;80.00;;;;;;4987961;28;20044;-42
2022/03/23 07:19:34;;;;;;;28.95;22.92;;;7.30;80.30;;;;;;4996835;28;20022;-43
2022/03/23 07:22:00;;;;;;;25.38;22.05;;;7.50;79.20;;;;;;4991350;28;20053;-42
2022/03/23 07:24:27;;;;;;;25.20;20.65;;;7.70;74.80;;;;;;5005269;28;20125;-43
2022/03/23 07:26:54;;;;;;;26.52;19.90;;;7.90;73.00;;;;;;4989075;28;20046;-43
2022/03/23 07:29:21;;;;;;;26.05;21.58;;;8.00;70.80;;;;;;4976460;28;20069;-42
2022/03/23 07:31:51;;;;;;;23.02;18.45;;;8.20;69.70;;;;;;4988006;28;20045;-42
2022/03/23 07:34:19;;;;;;;24.30;19.98;;;8.50;68.90;;;;;;4988643;28;20116;-45
2022/03/23 07:36:47;;;;;;;23.67;19.42;;;8.70;70.30;;;;;;4988843;28;20133;-43
2022/03/23 07:39:23;;;;;;;23.35;19.88;;;9.00;69.70;;;;;;4991476;28;20034;-43
2022/03/23 07:41:52;;;;;;;21.75;18.63;;;9.30;72.40;;;;;;4986544;28;20041;-43
2022/03/23 07:44:18;;;;;;;27.27;21.13;;;9.50;67.30;;;;;;4989201;28;20034;-43
2022/03/23 07:46:57;;;;;;;24.45;19.67;;;9.90;67.30;;;;;;4974245;28;20574;-43
2022/03/23 07:49:24;;;;;;;25.63;20.63;;;10.40;65.30;;;;;;4991645;28;20550;-44
2022/03/23 07:51:50;;;;;;;20.35;18.20;;;10.90;64.30;;;;;;4985849;28;20425;-45
2022/03/23 07:54:17;;;;;;;23.73;18.40;;;11.30;62.50;;;;;;4988576;28;20130;-45
2022/03/23 07:56:44;;;;;;;22.38;18.80;;;11.80;62.20;;;;;;4987183;28;20038;-45
2022/03/23 07:59:11;;;;;;;22.25;19.38;;;12.30;62.10;;;;;;5004839;28;20042;-45
2022/03/23 08:01:39;;;;;;;26.08;19.98;;;12.70;58.50;;;;;;4998511;28;21215;-47
2022/03/23 08:04:11;;;;;;;19.98;17.50;;;13.00;56.20;;;;;;5006027;28;20515;-43
2022/03/23 08:06:40;;;;;;;22.15;18.80;;;13.40;58.70;;;;;;5007922;28;20026;-46
2022/03/23 08:09:06;;;;;;;21.42;19.13;;;13.70;56.70;;;;;;5008829;28;20410;-48
2022/03/23 08:11:32;;;;;;;19.88;17.77;;;13.90;51.60;;;;;;5008043;28;20100;-45
2022/03/23 08:13:59;;;;;;;21.80;19.50;;;14.30;52.00;;;;;;4988720;28;20511;-45
2022/03/23 08:16:26;;;;;;;19.75;17.77;;;14.50;55.00;;;;;;5007291;28;20038;-46
2022/03/23 08:18:54;;;;;;;19.40;17.25;;;14.70;49.80;;;;;;5007167;28;20038;-45
2022/03/23 08:21:23;;;;;;;20.52;17.80;;;15.10;49.10;;;;;;5008078;28;20108;-46
2022/03/23 08:23:55;;;;;;;19.73;17.63;;;15.50;50.10;;;;;;5007485;28;20046;-44
2022/03/23 08:26:21;;;;;;;20.27;18.17;;;15.70;47.90;;;;;;5020971;28;20101;-46
2022/03/23 08:28:48;;;;;;;18.85;16.90;;;16.10;48.10;;;;;;5006607;28;20060;-45
2022/03/23 08:31:16;;;;;;;19.98;17.10;;;16.30;46.70;;;;;;5006663;28;20030;-45
2022/03/23 08:33:43;;;;;;;17.83;16.05;;;16.60;41.90;;;;;;5005859;28;20034;-49
2022/03/23 08:36:10;;;;;;;19.42;17.55;;;16.60;40.20;;;;;;5007010;28;20018;-45
2022/03/23 08:38:37;;;;;;;20.75;16.63;;;16.60;40.70;;;;;;5008206;28;20110;-49
2022/03/23 08:41:05;;;;;;;18.83;16.92;;;16.70;42.10;;;;;;5007088;28;20030;-46
2022/03/23 08:43:34;;;;;;;19.27;17.27;;;16.70;42.30;;;;;;5006808;28;20510;-47
2022/03/23 08:46:00;;;;;;;18.23;16.52;;;16.90;41.60;;;;;;5006752;28;20518;-47
2022/03/23 08:48:26;;;;;;;17.85;16.15;;;16.90;39.90;;;;;;5007860;28;20156;-45
2022/03/23 08:50:53;;;;;;;16.58;14.98;;;17.00;38.10;;;;;;4991154;28;20088;-46
2022/03/23 08:53:20;;;;;;;17.08;15.48;;;17.00;40.40;;;;;;5007057;28;20077;-47
2022/03/23 08:55:47;;;;;;;18.35;16.42;;;17.00;39.80;;;;;;5006339;28;20128;-47
2022/03/23 08:58:16;;;;;;;18.30;16.00;;;17.10;38.90;;;;;;5005656;28;20034;-45
2022/03/23 09:00:43;;;;;;;19.75;17.30;;;17.40;39.70;;;;;;5006739;28;20109;-46
2022/03/23 09:03:11;;;;;;;18.75;16.85;;;17.40;38.90;;;;;;5004195;28;20132;-50
2022/03/23 09:05:39;;;;;;;17.77;15.98;;;17.40;36.30;;;;;;5005857;28;20088;-45
2022/03/23 09:08:08;;;;;;;18.95;16.10;;;17.70;37.70;;;;;;5005909;28;20116;-47
2022/03/23 09:10:35;;;;;;;17.42;15.60;;;17.50;34.30;;;;;;5005610;28;20030;-44
2022/03/23 09:13:03;;;;;;;17.67;15.95;;;17.90;35.00;;;;;;5006581;28;20046;-47
2022/03/23 09:15:31;;;;;;;15.88;14.27;;;17.90;36.30;;;;;;5005468;28;20079;-45
2022/03/23 09:18:01;;;;;;;18.55;15.85;;;17.70;36.70;;;;;;5007471;28;20160;-44
2022/03/23 09:20:30;;;;;;;18.38;15.88;;;17.90;35.90;;;;;;5006330;28;20030;-47
2022/03/23 09:23:00;;;;;;;17.27;15.60;;;17.90;35.00;;;;;;5003640;28;20077;-45
2022/03/23 09:25:28;;;;;;;16.45;14.80;;;18.00;36.50;;;;;;5006765;28;20034;-47
2022/03/23 09:27:59;;;;;;;18.70;15.55;;;18.30;32.40;;;;;;5003788;28;20026;-50
2022/03/23 09:30:26;;;;;;;17.98;14.77;;;18.30;31.50;;;;;;5007916;28;20121;-48
2022/03/23 09:32:55;;;;;;;16.88;14.65;;;18.30;32.60;;;;;;5005180;28;20040;-47
2022/03/23 09:35:21;;;;;;;17.25;15.52;;;18.40;31.20;;;;;;5003565;28;20045;-45
2022/03/23 09:37:48;;;;;;;15.75;14.15;;;18.40;33.20;;;;;;5007205;28;20318;-45
2022/03/23 09:40:27;;;;;;;15.52;14.02;;;18.50;34.50;;;;;;5005792;28;20037;-47
2022/03/23 09:43:03;;;;;;;30.95;16.17;;;18.40;32.30;;;;;;5007195;28;20018;-45
2022/03/23 09:47:55;;;;;;;15.50;14.00;;;18.40;29.00;;;;;;5006398;28;20329;-44
2022/03/23 09:50:29;;;;;;;15.93;14.30;;;18.60;30.40;;;;;;5007333;28;20508;-46
2022/03/23 09:53:00;;;;;;;19.23;15.60;;;18.60;29.60;;;;;;4990424;28;20687;-45
2022/03/23 09:55:25;;;;;;;16.23;14.70;;;18.60;30.30;;;;;;5002422;28;20030;-47
2022/03/23 09:57:58;;;;;;;16.40;14.15;;;18.60;30.50;;;;;;4988706;28;20045;-43
2022/03/23 10:00:49;;;;;;;16.20;14.70;;;18.60;30.70;;;;;;5005011;28;20518;-43
2022/03/23 10:04:03;;;;;;;14.90;13.50;;;18.60;31.50;;;;;;5005045;28;20057;-42
2022/03/23 10:06:57;;;;;;;20.63;15.15;;;18.90;29.30;;;;;;5004240;28;20135;-48
2022/03/23 10:09:45;;;;;;;16.23;14.73;;;18.90;29.80;;;;;;5007102;28;20045;-41
2022/03/23 10:12:49;;;;;;;15.60;14.10;;;18.80;29.50;;;;;;5003857;28;20033;-46
2022/03/23 10:15:53;;;;;;;16.15;14.52;;;18.70;29.90;;;;;;5006439;28;20073;-44
2022/03/23 10:19:06;;;;;;;15.18;13.57;;;18.60;30.90;;;;;;5005641;28;20049;-42
2022/03/23 10:21:36;;;;;;;15.70;14.00;;;18.60;28.30;;;;;;5002856;28;20395;-46
2022/03/23 10:24:04;;;;;;;15.20;13.70;;;18.80;28.60;;;;;;4989223;28;20083;-43
2022/03/23 10:26:42;;;;;;;14.98;13.52;;;18.90;28.80;;;;;;5005715;28;20041;-43
2022/03/23 10:29:25;;;;;;;14.43;13.07;;;18.80;28.00;;;;;;5005459;28;20029;-42
2022/03/23 10:32:08;;;;;;;15.10;13.77;;;18.80;28.30;;;;;;5005626;28;20357;-44
2022/03/23 10:34:46;;;;;;;15.05;13.65;;;18.90;28.80;;;;;;5005424;28;20037;-42
2022/03/23 10:37:20;;;;;;;18.95;13.77;;;18.80;28.70;;;;;;5005733;28;20041;-44
2022/03/23 10:39:52;;;;;;;14.77;13.15;;;18.90;27.80;;;;;;5002196;28;20037;-46
2022/03/23 10:42:27;;;;;;;16.00;14.55;;;18.90;28.30;;;;;;4989278;28;20043;-46
2022/03/23 10:45:11;;;;;;;15.27;13.55;;;18.90;29.20;;;;;;5005676;28;20030;-47
2022/03/23 10:47:38;;;;;;;16.58;14.88;;;19.00;28.40;;;;;;4972701;28;20143;-49
2022/03/23 10:50:23;;;;;;;14.25;12.82;;;18.90;28.10;;;;;;5003320;28;20048;-45
2022/03/23 10:52:58;;;;;;;15.77;14.27;;;18.90;27.60;;;;;;5005671;28;20038;-45
2022/03/23 10:55:37;;;;;;;17.40;15.50;;;18.90;28.50;;;;;;5005451;28;20026;-46
2022/03/23 10:58:25;;;;;;;14.77;13.27;;;18.90;29.20;;;;;;5004983;28;20528;-48
2022/03/23 11:00:58;;;;;;;16.45;14.73;;;18.90;28.70;;;;;;5005999;28;20363;-52
2022/03/23 11:03:36;;;;;;;16.02;14.32;;;19.00;28.40;;;;;;5005393;28;20034;-46
2022/03/23 11:06:05;;;;;;;15.70;14.20;;;19.00;28.70;;;;;;5006243;28;20030;-50
2022/03/23 11:08:32;;;;;;;;;;;19.10;28.00;;;;;;5005402;28;20034;-44
2022/03/23 11:16:44;;;;;;;17.80;14.98;;;19.00;28.40;;;;;;5005384;28;20355;-42
2022/03/23 11:19:13;;;;;;;15.30;13.85;;;18.90;28.00;;;;;;5004122;28;20029;-46
2022/03/23 11:22:17;;;;;;;17.77;16.13;;;18.80;28.00;;;;;;5007634;28;20530;-46
2022/03/23 11:24:46;;;;;;;16.55;14.90;;;18.70;27.30;;;;;;5008224;28;20033;-48
2022/03/23 11:27:20;;;;;;;17.77;15.87;;;18.70;27.80;;;;;;5007510;28;20038;-45
2022/03/23 11:29:49;;;;;;;17.63;15.82;;;18.60;28.10;;;;;;4992394;28;20375;-45
2022/03/23 11:32:20;;;;;;;18.67;16.77;;;18.60;29.30;;;;;;5008923;28;20038;-45
2022/03/23 11:34:53;;;;;;;17.15;15.45;;;18.60;28.60;;;;;;5007065;28;20483;-44
2022/03/23 11:37:23;;;;;;;17.48;15.38;;;18.60;27.80;;;;;;5009132;28;20120;-45
2022/03/23 11:39:53;;;;;;;18.23;16.42;;;18.70;29.30;;;;;;4991573;28;20088;-41
2022/03/23 11:42:22;;;;;;;19.27;15.98;;;18.60;29.00;;;;;;5008249;28;20091;-43
2022/03/23 11:44:50;;;;;;;19.50;16.57;;;18.60;28.40;;;;;;5003801;28;20285;-46
2022/03/23 11:47:47;;;;;;;18.98;17.00;;;18.50;30.50;;;;;;5007672;28;20537;-43
2022/03/23 11:50:33;;;;;;;19.05;17.15;;;18.50;30.00;;;;;;5006537;28;20084;-45
2022/03/23 11:53:29;;;;;;;19.15;16.60;;;18.50;31.70;;;;;;5006318;28;20397;-42
2022/03/23 11:55:58;;;;;;;17.08;15.40;;;18.40;31.60;;;;;;5007359;28;20038;-43
2022/03/23 11:58:39;;;;;;;19.67;17.80;;;18.50;32.50;;;;;;5009130;28;20030;-44
2022/03/23 12:01:12;;;;;;;18.38;16.48;;;18.40;32.80;;;;;;5007106;28;20353;-45
2022/03/23 12:03:43;;;;;;;23.48;17.90;;;18.40;31.80;;;;;;5006778;28;20033;-42
2022/03/23 12:06:32;;;;;;;20.73;18.33;;;18.40;32.90;;;;;;5004806;28;20173;-44
2022/03/23 12:08:59;;;;;;;19.33;16.48;;;18.40;33.60;;;;;;5006374;28;20066;-45
2022/03/23 12:11:43;;;;;;;19.77;17.77;;;18.40;33.30;;;;;;5007107;28;20112;-43
2022/03/23 12:14:37;;;;;;;26.88;17.85;;;18.40;34.40;;;;;;5006892;28;20339;-43
2022/03/23 12:17:40;;;;;;;20.50;18.35;;;18.60;33.50;;;;;;5007725;28;20065;-44
2022/03/23 12:20:10;;;;;;;23.40;20.17;;;18.30;33.20;;;;;;4995904;28;20045;-44
2022/03/23 12:22:53;;;;;;;24.60;22.08;;;18.40;36.70;;;;;;5009079;28;20040;-43
2022/03/23 12:25:48;;;;;;;25.23;22.58;;;18.10;40.90;;;;;;4975282;28;20034;-42
2022/03/23 12:28:50;;;;;;;24.23;21.73;;;17.90;42.00;;;;;;5007598;28;20032;-42
2022/03/23 12:31:20;;;;;;;25.55;22.83;;;17.70;41.20;;;;;;5004095;28;20034;-44
2022/03/23 12:34:02;;;;;;;25.20;22.70;;;17.50;43.80;;;;;;5006365;28;20102;-47
2022/03/23 12:37:01;;;;;;;28.77;23.50;;;17.40;45.20;;;;;;5008677;28;20025;-46
2022/03/23 12:39:31;;;;;;;23.93;21.50;;;17.40;43.30;;;;;;5001408;28;20458;-45
2022/03/23 12:42:18;;;;;;;26.45;23.88;;;17.40;44.10;;;;;;5006639;28;20269;-42
2022/03/23 12:44:59;;;;;;;25.50;22.90;;;17.40;43.00;;;;;;4985599;28;20061;-44
2022/03/23 12:47:30;;;;;;;26.23;22.85;;;17.40;44.60;;;;;;5008180;28;20050;-43
2022/03/23 12:58:35;;;;;;;25.95;23.25;;;16.90;41.90;;;;;;5008023;28;20093;-46
2022/03/23 13:01:12;;;;;;;26.92;24.05;;;16.80;42.40;;;;;;5006974;28;20352;-45
2022/03/23 13:03:56;;;;;;;33.53;23.77;;;16.80;42.40;;;;;;5006102;28;20026;-44
2022/03/23 13:06:35;;;;;;;27.83;23.45;;;16.60;40.20;;;;;;5007263;28;20030;-43
2022/03/23 13:09:10;;;;;;;25.65;22.90;;;16.50;41.10;;;;;;5006588;28;20467;-44
2022/03/23 13:11:37;;;;;;;24.95;22.25;;;16.40;41.80;;;;;;5006650;28;20103;-43
2022/03/23 13:14:03;;;;;;;29.33;23.42;;;16.50;41.90;;;;;;5003529;28;20471;-43
2022/03/23 13:16:36;;;;;;;31.15;24.08;;;16.50;41.90;;;;;;5007615;28;20050;-49
2022/03/23 13:19:04;;;;;;;24.00;21.60;;;16.50;41.70;;;;;;5007369;28;20034;-42